Time;durP1;ratioP1;P1;durP2;ratioP2;P2;SDS_P1;SDS_P2;PMS_P1;PMS_P2;Temp;Humidity;BMP_temperature;BMP_pressure;BME280_temperature;BME280_humidity;BME280_pressure;Samples;Min_cycle;Max_cycle;Signal;HPM_P1;HPM_P2
2022/11/13 00:00:32;;;;;;;22.00;11.23;;;6.10;99.90;;;;;;4979629;28;20054;-72
2022/11/13 00:02:58;;;;;;;16.85;10.30;;;6.10;99.90;;;;;;5000123;28;20124;-72
2022/11/13 00:05:24;;;;;;;16.50;9.95;;;6.10;99.90;;;;;;5000038;28;20116;-72
2022/11/13 00:07:49;;;;;;;17.75;9.05;;;6.10;99.90;;;;;;5003091;28;20041;-72
2022/11/13 00:10:15;;;;;;;15.10;9.17;;;6.10;99.90;;;;;;4980134;28;20054;-72
2022/11/13 00:12:41;;;;;;;12.90;9.20;;;6.10;99.90;;;;;;5002493;28;20045;-72
2022/11/13 00:15:07;;;;;;;15.53;9.57;;;6.10;99.90;;;;;;4969269;28;20057;-72
2022/11/13 00:17:33;;;;;;;14.95;9.15;;;6.10;99.90;;;;;;4977392;28;20292;-72
2022/11/13 00:19:58;;;;;;;15.83;9.03;;;6.10;99.90;;;;;;4981834;28;20522;-72
2022/11/13 00:22:24;;;;;;;12.57;8.03;;;6.10;99.90;;;;;;4984845;28;20125;-72
2022/11/13 00:24:50;;;;;;;16.95;9.65;;;6.00;99.90;;;;;;4977731;28;20464;-72
2022/11/13 00:27:15;;;;;;;12.87;9.13;;;6.00;99.90;;;;;;4999423;28;20128;-72
2022/11/13 00:29:41;;;;;;;17.90;8.57;;;6.00;99.90;;;;;;4987080;28;20076;-72
2022/11/13 00:32:07;;;;;;;14.73;8.60;;;6.00;99.90;;;;;;5001855;28;20041;-72
2022/11/13 00:34:32;;;;;;;18.37;9.70;;;6.00;99.90;;;;;;4981415;28;20045;-72
2022/11/13 00:36:58;;;;;;;21.20;10.97;;;5.90;99.90;;;;;;4986167;28;20053;-73
2022/11/13 00:39:24;;;;;;;21.13;9.63;;;5.90;99.90;;;;;;4992094;28;20521;-72
2022/11/13 00:41:49;;;;;;;23.60;12.47;;;6.00;99.90;;;;;;4987995;28;20049;-72
2022/11/13 00:44:15;;;;;;;20.47;12.17;;;6.00;99.90;;;;;;4998156;28;20350;-71
2022/11/13 00:46:41;;;;;;;28.73;12.83;;;6.00;99.90;;;;;;4993969;28;20563;-71
2022/11/13 00:49:06;;;;;;;26.57;12.70;;;6.10;99.90;;;;;;5000415;28;20069;-72
2022/11/13 00:51:32;;;;;;;24.47;10.03;;;6.10;99.90;;;;;;4978734;28;20076;-72
2022/11/13 00:53:58;;;;;;;19.52;9.55;;;6.20;99.90;;;;;;4986924;28;20235;-72
2022/11/13 00:56:24;;;;;;;15.77;8.53;;;6.20;99.90;;;;;;4997138;28;20136;-72
2022/11/13 00:58:49;;;;;;;15.20;8.13;;;6.30;99.90;;;;;;4999338;28;20127;-72
2022/11/13 01:01:17;;;;;;;17.87;9.10;;;6.40;99.90;;;;;;4993064;28;20054;-72
2022/11/13 01:03:43;;;;;;;19.10;8.90;;;6.40;99.90;;;;;;4981090;28;20291;-72
2022/11/13 01:06:18;;;;;;;17.52;8.57;;;6.40;99.90;;;;;;4977622;28;20442;-72
2022/11/13 01:08:44;;;;;;;18.70;10.02;;;6.50;99.90;;;;;;4982237;28;20050;-72
2022/11/13 01:11:19;;;;;;;18.37;9.77;;;6.50;99.90;;;;;;4982114;28;20049;-71
2022/11/13 01:13:46;;;;;;;21.85;10.40;;;6.60;99.90;;;;;;4998221;28;20427;-72
2022/11/13 01:16:14;;;;;;;18.60;9.10;;;6.70;99.90;;;;;;4999798;28;20073;-72
2022/11/13 01:18:41;;;;;;;27.35;10.93;;;6.70;99.90;;;;;;4997507;28;20042;-72
2022/11/13 01:21:16;;;;;;;27.35;12.40;;;6.70;99.90;;;;;;4998982;28;20136;-72
2022/11/13 01:23:42;;;;;;;20.73;11.75;;;6.70;99.90;;;;;;4977658;28;20048;-72
2022/11/13 01:26:20;;;;;;;20.70;11.13;;;6.70;99.90;;;;;;4998395;28;20423;-72
2022/11/13 01:28:46;;;;;;;20.10;10.80;;;6.70;99.90;;;;;;4983569;28;20045;-72
2022/11/13 01:31:15;;;;;;;22.20;11.88;;;6.70;99.90;;;;;;4992672;28;20077;-71
2022/11/13 01:33:42;;;;;;;20.60;11.20;;;6.70;99.90;;;;;;4980181;28;20500;-72
2022/11/13 01:36:14;;;;;;;25.85;12.52;;;6.80;99.90;;;;;;4998805;28;20042;-72
2022/11/13 01:38:40;;;;;;;20.45;11.30;;;6.80;99.90;;;;;;4978047;28;20045;-72
2022/11/13 01:41:06;;;;;;;21.40;11.63;;;6.80;99.90;;;;;;4978776;28;20533;-72
2022/11/13 01:43:35;;;;;;;22.00;11.93;;;6.80;99.90;;;;;;4988875;28;20047;-72
2022/11/13 01:46:06;;;;;;;21.63;11.18;;;6.80;99.90;;;;;;5003348;28;20065;-72
2022/11/13 01:48:42;;;;;;;21.85;10.73;;;6.80;99.90;;;;;;4996341;28;20050;-72
2022/11/13 01:51:17;;;;;;;18.27;7.70;;;6.80;99.90;;;;;;4995411;28;20471;-72
2022/11/13 01:53:46;;;;;;;14.48;7.72;;;6.80;99.90;;;;;;4994793;28;20128;-72
2022/11/13 01:56:13;;;;;;;13.30;7.28;;;6.90;99.90;;;;;;4999111;28;20531;-72
2022/11/13 01:58:41;;;;;;;16.75;7.88;;;6.90;99.90;;;;;;5001023;28;20143;-71
2022/11/13 02:01:06;;;;;;;11.27;7.05;;;6.90;99.90;;;;;;4995689;28;20066;-72
2022/11/13 02:03:32;;;;;;;14.07;7.43;;;6.90;99.90;;;;;;4984463;28;20172;-71
2022/11/13 02:05:58;;;;;;;11.23;7.97;;;6.90;99.90;;;;;;4980009;28;20030;-71
2022/11/13 02:08:24;;;;;;;12.83;7.53;;;6.90;99.90;;;;;;4983320;28;20068;-71
2022/11/13 02:10:49;;;;;;;13.52;7.03;;;6.90;99.90;;;;;;4988266;28;21193;-72
2022/11/13 02:13:15;;;;;;;14.40;7.10;;;6.90;99.90;;;;;;4973356;28;20054;-72
2022/11/13 02:15:43;;;;;;;14.55;8.13;;;6.90;99.90;;;;;;4978140;28;20128;-72
2022/11/13 02:18:10;;;;;;;13.93;7.32;;;6.90;99.90;;;;;;4980081;28;20045;-72
2022/11/13 02:21:00;;;;;;;14.07;7.82;;;6.90;99.90;;;;;;4989928;28;20092;-71
2022/11/13 02:23:38;;;;;;;11.23;7.07;;;6.90;99.90;;;;;;4979821;28;20045;-71
2022/11/13 02:26:05;;;;;;;15.23;8.18;;;6.90;99.90;;;;;;4977636;28;20068;-71
2022/11/13 02:28:30;;;;;;;13.73;7.63;;;6.90;99.90;;;;;;4993435;28;20041;-72
2022/11/13 02:31:08;;;;;;;12.13;8.17;;;6.90;99.90;;;;;;4985508;28;20072;-72
2022/11/13 02:33:34;;;;;;;13.95;7.90;;;6.90;99.90;;;;;;5002740;28;20085;-72
2022/11/13 02:36:00;;;;;;;16.63;8.43;;;6.90;99.90;;;;;;4986706;28;20173;-72
2022/11/13 02:38:25;;;;;;;11.88;7.28;;;6.90;99.90;;;;;;4987079;28;20183;-71
2022/11/13 02:40:51;;;;;;;13.53;8.03;;;6.90;99.90;;;;;;4997150;28;20484;-72
2022/11/13 02:43:17;;;;;;;11.53;6.87;;;6.90;99.90;;;;;;4965628;28;20110;-72
2022/11/13 02:45:42;;;;;;;15.13;7.57;;;6.90;99.90;;;;;;4982709;28;20049;-72
2022/11/13 02:48:08;;;;;;;13.47;7.77;;;6.90;99.90;;;;;;4988170;28;20049;-72
2022/11/13 02:50:35;;;;;;;12.67;7.60;;;6.90;99.90;;;;;;4981362;28;20050;-72
2022/11/13 02:53:01;;;;;;;17.90;6.88;;;6.90;99.90;;;;;;4995774;28;20061;-71
2022/11/13 02:55:27;;;;;;;12.27;7.40;;;6.90;99.90;;;;;;4999681;28;20423;-72
2022/11/13 02:57:52;;;;;;;12.57;7.93;;;6.90;99.90;;;;;;4979862;28;20453;-72
2022/11/13 03:00:18;;;;;;;16.33;8.17;;;6.90;99.90;;;;;;4994232;28;20241;-72
2022/11/13 03:02:44;;;;;;;15.00;7.85;;;7.00;99.90;;;;;;5001318;28;20523;-72
2022/11/13 03:05:09;;;;;;;15.67;8.03;;;6.90;99.90;;;;;;5000228;28;20109;-72
2022/11/13 03:07:35;;;;;;;16.53;8.17;;;6.90;99.90;;;;;;5002224;28;20203;-72
2022/11/13 03:10:01;;;;;;;14.30;8.40;;;7.00;99.90;;;;;;4999315;28;20042;-72
2022/11/13 03:12:26;;;;;;;12.67;7.80;;;7.00;99.90;;;;;;4983796;28;20164;-72
2022/11/13 03:14:52;;;;;;;13.47;7.83;;;7.00;99.90;;;;;;4990900;28;20078;-72
2022/11/13 03:17:18;;;;;;;13.23;8.37;;;7.00;99.90;;;;;;4983783;28;20042;-72
2022/11/13 03:19:43;;;;;;;17.27;8.87;;;7.00;99.90;;;;;;5009220;28;20161;-72
2022/11/13 03:22:09;;;;;;;12.90;7.13;;;7.00;99.90;;;;;;4995376;28;20064;-72
2022/11/13 03:24:35;;;;;;;13.10;7.67;;;7.00;99.90;;;;;;5000088;23;20228;-67
2022/11/13 03:27:01;;;;;;;14.23;8.00;;;7.00;99.90;;;;;;5004010;28;20030;-67
2022/11/13 03:29:26;;;;;;;13.35;7.88;;;7.00;99.90;;;;;;4997648;28;20403;-69
2022/11/13 03:31:52;;;;;;;13.07;8.20;;;7.00;99.90;;;;;;4998677;28;20049;-69
2022/11/13 03:34:18;;;;;;;15.43;8.30;;;7.00;99.90;;;;;;5017204;28;20033;-70
2022/11/13 03:36:43;;;;;;;13.73;7.80;;;7.00;99.90;;;;;;4995252;28;20045;-69
2022/11/13 03:39:09;;;;;;;13.73;8.33;;;7.00;99.90;;;;;;5009580;28;20042;-69
2022/11/13 03:41:35;;;;;;;16.90;9.37;;;7.00;99.90;;;;;;5013267;28;20065;-69
2022/11/13 03:44:00;;;;;;;16.00;9.27;;;7.00;99.90;;;;;;5000647;28;20037;-66
2022/11/13 03:46:26;;;;;;;18.30;8.48;;;7.00;99.90;;;;;;5007349;28;20044;-67
2022/11/13 03:48:52;;;;;;;15.40;8.80;;;7.00;99.90;;;;;;4991752;28;20048;-67
2022/11/13 03:51:17;;;;;;;16.50;8.93;;;7.00;99.90;;;;;;4988705;28;20586;-67
2022/11/13 03:53:43;;;;;;;21.23;9.33;;;7.00;99.90;;;;;;4991469;28;20054;-67
2022/11/13 03:56:09;;;;;;;14.63;9.10;;;7.10;99.90;;;;;;4994245;28;20562;-68
2022/11/13 03:58:34;;;;;;;22.23;9.30;;;7.00;99.90;;;;;;5008536;28;20466;-67
2022/11/13 04:01:00;;;;;;;13.10;8.53;;;7.10;99.90;;;;;;4994417;28;20078;-68
2022/11/13 04:03:26;;;;;;;15.32;9.27;;;7.10;99.90;;;;;;4992923;28;20257;-68
2022/11/13 04:05:52;;;;;;;14.70;9.17;;;7.10;99.90;;;;;;5009449;28;20119;-69
2022/11/13 04:08:18;;;;;;;14.25;8.57;;;7.10;99.90;;;;;;5007073;28;20104;-68
2022/11/13 04:10:45;;;;;;;14.68;9.18;;;7.10;99.90;;;;;;4986947;28;20499;-68
2022/11/13 04:13:11;;;;;;;15.70;9.07;;;7.10;99.90;;;;;;4992413;28;20053;-67
2022/11/13 04:15:37;;;;;;;15.00;8.82;;;7.10;99.90;;;;;;5008561;28;20046;-67
2022/11/13 04:18:03;;;;;;;14.20;9.55;;;7.10;99.90;;;;;;4998745;28;20050;-67
2022/11/13 04:20:29;;;;;;;16.23;8.98;;;7.10;99.90;;;;;;4991750;28;20180;-67
2022/11/13 04:22:56;;;;;;;16.20;9.35;;;7.10;99.90;;;;;;5004667;28;20121;-68
2022/11/13 04:25:22;;;;;;;15.18;8.93;;;7.10;99.90;;;;;;4997141;28;20104;-68
2022/11/13 04:27:49;;;;;;;;;;;7.10;99.90;;;;;;5011663;28;20045;-68
2022/11/13 04:30:15;;;;;;;19.00;9.48;;;7.10;99.90;;;;;;4991144;28;20216;-68
2022/11/13 04:32:40;;;;;;;18.40;9.43;;;7.10;99.90;;;;;;4987447;28;20496;-68
2022/11/13 04:35:07;;;;;;;15.63;8.43;;;7.10;99.90;;;;;;5006307;28;20828;-68
2022/11/13 04:37:33;;;;;;;17.83;9.45;;;7.10;99.90;;;;;;4987313;28;20125;-68
2022/11/13 04:39:58;;;;;;;14.97;9.07;;;7.10;99.90;;;;;;5000518;28;20117;-68
2022/11/13 04:45:08;;;;;;;17.05;8.07;;;7.10;99.90;;;;;;4981643;28;20492;-67
2022/11/13 04:47:34;;;;;;;15.60;8.90;;;7.10;99.90;;;;;;5001347;28;20133;-68
2022/11/13 04:50:00;;;;;;;15.68;8.57;;;7.10;99.90;;;;;;4991074;28;20078;-68
2022/11/13 04:52:27;;;;;;;15.82;8.77;;;7.10;99.90;;;;;;4999713;28;20049;-68
2022/11/13 04:54:53;;;;;;;15.00;9.38;;;7.00;99.90;;;;;;4985625;28;20546;-66
2022/11/13 04:57:19;;;;;;;18.42;9.20;;;7.00;99.90;;;;;;4993696;28;20065;-68
2022/11/13 04:59:45;;;;;;;14.93;9.07;;;7.00;99.90;;;;;;5005143;28;20096;-67
2022/11/13 05:02:10;;;;;;;16.67;9.67;;;7.00;99.90;;;;;;4986772;28;20317;-67
2022/11/13 05:04:36;;;;;;;15.37;9.33;;;7.00;99.90;;;;;;5007737;28;20065;-67
2022/11/13 05:07:02;;;;;;;17.90;9.20;;;7.00;99.90;;;;;;4990485;28;20096;-67
2022/11/13 05:09:27;;;;;;;18.80;9.20;;;7.10;99.90;;;;;;4989115;28;20475;-67
2022/11/13 05:11:53;;;;;;;16.07;8.90;;;7.10;99.90;;;;;;5006176;28;20295;-68
2022/11/13 05:14:19;;;;;;;15.43;9.20;;;7.10;99.90;;;;;;4989756;28;20300;-68
2022/11/13 05:16:44;;;;;;;16.10;8.63;;;7.10;99.90;;;;;;4988533;28;20083;-67
2022/11/13 05:19:10;;;;;;;14.67;8.43;;;7.10;99.90;;;;;;5007045;28;20370;-67
2022/11/13 05:21:37;;;;;;;16.10;8.77;;;7.10;99.90;;;;;;5005557;28;20515;-68
2022/11/13 05:24:04;;;;;;;14.52;9.07;;;7.10;99.90;;;;;;4994155;28;20492;-67
2022/11/13 05:26:30;;;;;;;20.85;9.13;;;7.00;99.90;;;;;;4988173;28;20481;-68
2022/11/13 05:28:57;;;;;;;14.93;8.85;;;7.10;99.90;;;;;;4989202;28;20056;-67
2022/11/13 05:31:24;;;;;;;16.25;8.85;;;7.10;99.90;;;;;;5002805;28;20109;-68
2022/11/13 05:33:50;;;;;;;;;;;7.00;99.90;;;;;;4999133;28;20041;-68
2022/11/13 05:36:17;;;;;;;16.10;8.05;;;7.00;99.90;;;;;;4992422;28;20429;-68
2022/11/13 05:38:43;;;;;;;15.52;8.55;;;7.00;99.90;;;;;;5009251;28;20411;-68
2022/11/13 05:41:13;;;;;;;15.30;8.32;;;6.90;99.90;;;;;;4992542;28;20643;-68
2022/11/13 05:43:39;;;;;;;16.73;8.88;;;7.00;99.90;;;;;;4984970;28;20054;-68
2022/11/13 05:46:15;;;;;;;17.63;9.13;;;6.90;99.90;;;;;;4993513;28;20055;-67
2022/11/13 05:48:41;;;;;;;14.93;8.30;;;6.90;99.90;;;;;;5004431;28;20365;-68
2022/11/13 05:51:13;;;;;;;15.18;8.93;;;6.90;99.90;;;;;;5001143;28;20472;-68
2022/11/13 05:53:39;;;;;;;15.20;8.50;;;6.90;99.90;;;;;;4992986;28;20133;-69
2022/11/13 05:56:11;;;;;;;14.95;8.75;;;6.90;99.90;;;;;;4998077;28;20050;-67
2022/11/13 05:58:38;;;;;;;14.90;8.40;;;6.90;99.90;;;;;;4980557;28;20133;-68
2022/11/13 06:01:07;;;;;;;16.77;8.48;;;6.80;99.90;;;;;;5004090;28;20069;-67
2022/11/13 06:03:33;;;;;;;14.10;8.38;;;6.90;99.90;;;;;;5006001;28;20038;-68
2022/11/13 06:05:59;;;;;;;16.10;8.87;;;6.80;99.90;;;;;;4976912;28;20571;-67
2022/11/13 06:08:25;;;;;;;20.45;8.95;;;6.80;99.90;;;;;;5005025;28;20037;-68
2022/11/13 06:10:51;;;;;;;14.07;9.05;;;6.80;99.90;;;;;;5002974;28;20644;-66
2022/11/13 06:13:17;;;;;;;14.37;7.77;;;6.80;99.90;;;;;;4994019;28;20344;-68
2022/11/13 06:15:43;;;;;;;18.83;7.93;;;6.70;99.90;;;;;;5002905;28;20357;-68
2022/11/13 06:18:08;;;;;;;11.87;7.77;;;6.70;99.90;;;;;;5007444;28;20117;-68
2022/11/13 06:20:35;;;;;;;19.50;8.47;;;6.70;99.90;;;;;;4989662;28;20345;-68
2022/11/13 06:23:01;;;;;;;17.35;8.48;;;6.70;99.90;;;;;;4986230;28;20556;-67
2022/11/13 06:25:27;;;;;;;13.63;7.70;;;6.70;99.90;;;;;;4987086;28;20052;-67
2022/11/13 06:27:53;;;;;;;16.40;8.73;;;6.60;99.90;;;;;;4995197;28;20476;-68
2022/11/13 06:30:19;;;;;;;14.50;8.60;;;6.60;99.90;;;;;;4974313;28;20060;-68
2022/11/13 06:32:51;;;;;;;14.73;8.80;;;6.60;99.90;;;;;;4984583;28;20283;-67
2022/11/13 06:35:17;;;;;;;14.52;8.55;;;6.60;99.90;;;;;;4981598;28;20400;-68
2022/11/13 06:37:43;;;;;;;19.33;7.97;;;6.60;99.90;;;;;;4987812;28;20054;-68
2022/11/13 06:40:09;;;;;;;12.80;7.50;;;6.60;99.90;;;;;;4984291;28;20026;-68
2022/11/13 06:42:35;;;;;;;16.02;8.27;;;6.50;99.90;;;;;;5004331;28;20729;-67
2022/11/13 06:45:01;;;;;;;15.73;8.93;;;6.50;99.90;;;;;;5011058;28;20136;-68
2022/11/13 06:47:27;;;;;;;16.47;7.43;;;6.50;99.90;;;;;;4977240;28;20291;-68
2022/11/13 06:49:52;;;;;;;13.73;7.85;;;6.50;99.90;;;;;;4992029;28;20037;-67
2022/11/13 06:52:18;;;;;;;13.00;7.70;;;6.50;99.90;;;;;;4993185;28;20088;-67
2022/11/13 06:54:44;;;;;;;14.25;8.55;;;6.50;99.90;;;;;;4988632;28;20042;-67
2022/11/13 06:57:10;;;;;;;12.97;7.80;;;6.50;99.90;;;;;;4976306;28;20404;-68
2022/11/13 06:59:36;;;;;;;15.38;8.60;;;6.50;99.90;;;;;;5005301;28;20814;-68
2022/11/13 07:02:02;;;;;;;14.60;7.05;;;6.40;99.90;;;;;;5004853;28;20040;-67
2022/11/13 07:04:28;;;;;;;12.45;7.63;;;6.40;99.90;;;;;;4989628;28;20042;-68
2022/11/13 07:06:53;;;;;;;13.50;8.17;;;6.40;99.90;;;;;;4999905;28;20045;-67
2022/11/13 07:09:19;;;;;;;14.63;7.47;;;6.40;99.90;;;;;;5012603;28;20081;-68
2022/11/13 07:11:45;;;;;;;14.87;8.63;;;6.40;99.90;;;;;;4991215;28;20414;-68
2022/11/13 07:14:11;;;;;;;15.80;8.27;;;6.30;99.90;;;;;;4990469;28;20081;-68
2022/11/13 07:16:37;;;;;;;;;;;6.40;99.90;;;;;;4985987;28;20284;-68
2022/11/13 07:19:03;;;;;;;14.95;8.60;;;6.30;99.90;;;;;;5008931;28;20527;-68
2022/11/13 07:21:29;;;;;;;17.45;8.82;;;6.30;99.90;;;;;;5007193;28;20310;-68
2022/11/13 07:23:56;;;;;;;15.27;9.18;;;6.30;99.90;;;;;;5007598;28;20344;-68
2022/11/13 07:26:22;;;;;;;15.48;8.77;;;6.30;99.90;;;;;;4990613;28;20042;-68
2022/11/13 07:28:48;;;;;;;15.48;8.88;;;6.30;99.90;;;;;;4995613;28;20037;-67
2022/11/13 07:31:15;;;;;;;17.10;8.88;;;6.30;99.90;;;;;;5006032;28;20037;-68
2022/11/13 07:33:41;;;;;;;13.07;8.38;;;6.30;99.90;;;;;;4998127;28;20096;-68
2022/11/13 07:36:08;;;;;;;14.77;7.68;;;6.40;99.90;;;;;;5009554;28;20054;-68
2022/11/13 07:38:34;;;;;;;14.48;7.38;;;6.30;99.90;;;;;;4990158;28;20415;-67
2022/11/13 07:41:00;;;;;;;14.63;8.27;;;6.40;99.90;;;;;;5009307;28;20352;-67
2022/11/13 07:43:26;;;;;;;18.08;7.82;;;6.40;99.90;;;;;;5006675;28;20124;-67
2022/11/13 07:45:55;;;;;;;15.40;7.40;;;6.50;99.90;;;;;;5009059;28;20045;-67
2022/11/13 07:48:22;;;;;;;15.95;8.68;;;6.50;99.90;;;;;;5003486;28;20481;-67
2022/11/13 07:50:49;;;;;;;13.95;8.18;;;6.50;99.90;;;;;;4989764;28;20033;-67
2022/11/13 07:53:14;;;;;;;;;;;6.60;99.90;;;;;;4983321;28;21904;-68
2022/11/13 07:55:40;;;;;;;16.73;8.15;;;6.60;99.90;;;;;;4988482;28;20267;-67
2022/11/13 07:58:06;;;;;;;17.13;8.10;;;6.60;99.90;;;;;;4983144;28;20034;-67
2022/11/13 08:00:33;;;;;;;14.30;8.07;;;6.60;99.90;;;;;;4989840;28;20037;-67
2022/11/13 08:03:07;;;;;;;15.65;7.82;;;6.70;99.90;;;;;;4996291;28;20038;-67
2022/11/13 08:05:33;;;;;;;15.30;8.63;;;6.80;99.90;;;;;;4987633;28;20054;-68
2022/11/13 08:07:59;;;;;;;13.57;8.30;;;6.80;99.90;;;;;;4991874;28;20579;-68
2022/11/13 08:10:25;;;;;;;13.67;8.00;;;6.90;99.90;;;;;;5008146;28;20074;-66
2022/11/13 08:12:58;;;;;;;17.65;8.10;;;7.00;99.90;;;;;;5007360;28;20045;-66
2022/11/13 08:15:23;;;;;;;15.40;8.25;;;7.00;99.90;;;;;;4988589;28;20062;-68
2022/11/13 08:17:54;;;;;;;14.87;7.17;;;7.10;99.90;;;;;;4992097;28;20407;-68
2022/11/13 08:20:20;;;;;;;14.70;7.55;;;7.20;99.90;;;;;;5003730;28;20050;-67
2022/11/13 08:22:45;;;;;;;11.30;7.30;;;7.20;99.90;;;;;;4990165;28;20499;-67
2022/11/13 08:25:11;;;;;;;13.77;8.43;;;7.30;99.90;;;;;;4983760;28;20045;-68
2022/11/13 08:27:37;;;;;;;14.23;8.40;;;7.30;99.90;;;;;;4990974;28;20086;-67
2022/11/13 08:30:03;;;;;;;14.07;8.38;;;7.40;99.90;;;;;;4991297;28;20053;-68
2022/11/13 08:32:29;;;;;;;13.10;7.85;;;7.50;99.90;;;;;;4990564;28;20134;-68
2022/11/13 08:34:57;;;;;;;14.13;7.57;;;7.60;99.90;;;;;;5006939;28;20229;-68
2022/11/13 08:37:23;;;;;;;15.07;8.13;;;7.60;99.90;;;;;;4986574;28;20281;-68
2022/11/13 08:39:49;;;;;;;15.83;8.33;;;7.70;99.90;;;;;;4994640;28;20026;-67
2022/11/13 08:42:15;;;;;;;15.47;8.67;;;7.80;99.90;;;;;;4990175;28;20231;-67
2022/11/13 08:44:40;;;;;;;15.23;8.05;;;7.90;99.90;;;;;;4993390;28;20356;-67
2022/11/13 08:47:06;;;;;;;15.87;8.23;;;7.90;99.90;;;;;;4987577;28;20064;-67
2022/11/13 08:49:32;;;;;;;13.50;7.67;;;8.00;99.90;;;;;;4999474;28;20053;-67
2022/11/13 08:51:57;;;;;;;14.97;7.83;;;8.10;99.90;;;;;;4999082;28;20505;-68
2022/11/13 08:54:23;;;;;;;20.40;8.43;;;8.20;99.90;;;;;;5006177;28;20112;-68
2022/11/13 08:56:49;;;;;;;17.48;8.07;;;8.30;99.90;;;;;;4999589;28;20046;-68
2022/11/13 08:59:15;;;;;;;15.40;7.53;;;8.40;99.90;;;;;;5006613;28;20514;-68
2022/11/13 09:01:40;;;;;;;14.37;7.70;;;8.40;99.90;;;;;;5002379;28;20092;-69
2022/11/13 09:04:07;;;;;;;11.57;7.13;;;8.50;99.90;;;;;;4984050;28;20042;-67
2022/11/13 09:06:33;;;;;;;13.52;7.30;;;8.60;99.90;;;;;;4988680;28;20099;-69
2022/11/13 09:09:03;;;;;;;12.13;7.35;;;8.70;99.90;;;;;;4992190;28;20046;-70
2022/11/13 09:11:28;;;;;;;13.18;7.30;;;8.70;99.90;;;;;;5008562;28;20077;-71
2022/11/13 09:13:57;;;;;;;13.10;7.53;;;8.80;99.90;;;;;;4991406;28;20045;-70
2022/11/13 09:16:25;;;;;;;12.23;6.65;;;8.90;99.90;;;;;;5009865;28;20049;-71
2022/11/13 09:18:56;;;;;;;12.90;6.47;;;8.90;99.90;;;;;;5009587;28;20037;-70
2022/11/13 09:21:21;;;;;;;10.40;6.95;;;9.10;99.90;;;;;;4991500;28;20056;-69
2022/11/13 09:23:47;;;;;;;11.63;6.30;;;9.20;99.90;;;;;;5002155;28;20042;-72
2022/11/13 09:26:13;;;;;;;9.00;6.27;;;9.20;99.90;;;;;;4983790;23;20042;-74
2022/11/13 09:28:40;;;;;;;10.60;6.70;;;9.30;99.90;;;;;;4986020;28;20034;-76
2022/11/13 09:31:06;;;;;;;9.95;6.63;;;9.40;99.90;;;;;;4982462;28;20084;-73
2022/11/13 09:33:33;;;;;;;11.48;6.72;;;9.50;99.90;;;;;;4989579;28;20468;-73
2022/11/13 09:35:59;;;;;;;10.15;6.45;;;9.50;99.90;;;;;;4985494;28;20042;-72
2022/11/13 09:38:25;;;;;;;9.95;6.45;;;9.60;99.90;;;;;;4984613;28;20081;-72
2022/11/13 09:41:02;;;;;;;9.07;5.70;;;9.70;99.90;;;;;;4968111;28;20047;-72
2022/11/13 09:43:30;;;;;;;11.02;6.03;;;9.70;99.90;;;;;;4964301;28;20745;-72
2022/11/13 09:46:03;;;;;;;11.50;6.30;;;9.80;99.90;;;;;;4983645;28;20193;-72
2022/11/13 09:48:39;;;;;;;12.32;6.80;;;9.80;99.90;;;;;;4964831;28;20054;-73
2022/11/13 09:51:20;;;;;;;11.77;6.40;;;10.00;99.90;;;;;;4983178;28;20042;-72
2022/11/13 09:53:47;;;;;;;10.85;5.97;;;10.00;99.90;;;;;;4966249;28;20366;-72
2022/11/13 09:56:32;;;;;;;9.65;6.07;;;10.10;99.90;;;;;;4965134;28;20069;-72
2022/11/13 09:59:05;;;;;;;11.07;6.05;;;10.20;99.90;;;;;;4985541;28;20043;-73
2022/11/13 10:01:49;;;;;;;10.38;6.13;;;10.40;99.90;;;;;;4965331;28;20302;-72
2022/11/13 10:04:23;;;;;;;10.52;5.95;;;10.50;99.90;;;;;;4961099;28;20054;-73
2022/11/13 10:06:55;;;;;;;10.70;6.05;;;10.60;99.90;;;;;;4964834;28;20058;-72
2022/11/13 10:09:50;;;;;;;8.48;5.18;;;10.60;99.90;;;;;;4941583;28;20455;-72
2022/11/13 10:12:15;;;;;;;9.90;5.63;;;10.80;99.90;;;;;;4955182;28;20159;-72
2022/11/13 10:14:45;;;;;;;9.83;5.60;;;10.90;99.90;;;;;;4942221;28;20046;-72
2022/11/13 10:17:36;;;;;;;9.30;5.22;;;11.00;99.90;;;;;;4978775;28;20331;-73
2022/11/13 10:20:10;;;;;;;9.32;5.68;;;11.10;99.90;;;;;;4962823;28;20093;-72
2022/11/13 10:22:46;;;;;;;9.73;5.55;;;11.20;99.90;;;;;;4961042;28;20034;-73
2022/11/13 10:25:20;;;;;;;8.85;5.30;;;11.30;99.90;;;;;;4960111;28;20046;-72
2022/11/13 10:27:56;;;;;;;8.90;5.35;;;11.50;99.90;;;;;;4963274;28;20056;-73
2022/11/13 10:30:22;;;;;;;8.63;5.37;;;11.60;99.90;;;;;;4975167;28;20058;-72
2022/11/13 10:32:48;;;;;;;11.73;5.35;;;11.70;99.90;;;;;;4959954;28;20042;-72
2022/11/13 10:35:44;;;;;;;6.55;4.88;;;11.80;99.90;;;;;;4979602;28;20567;-72
2022/11/13 10:38:22;;;;;;;7.63;4.45;;;11.80;99.90;;;;;;4958805;28;20041;-72
2022/11/13 10:40:47;;;;;;;8.18;4.97;;;12.00;99.90;;;;;;4977940;28;20026;-73
2022/11/13 10:43:18;;;;;;;8.67;5.37;;;12.10;99.90;;;;;;4969526;28;20038;-72
2022/11/13 10:45:59;;;;;;;7.18;4.60;;;12.20;99.90;;;;;;4964426;28;20042;-73
2022/11/13 10:48:28;;;;;;;7.32;4.35;;;12.20;99.90;;;;;;4979656;28;20501;-72
2022/11/13 10:50:56;;;;;;;7.85;4.57;;;12.20;99.90;;;;;;4958991;28;20050;-72
2022/11/13 10:53:23;;;;;;;9.52;5.03;;;12.40;99.90;;;;;;4981498;28;20534;-72
2022/11/13 10:55:56;;;;;;;7.15;4.85;;;12.40;99.90;;;;;;4960398;28;20899;-72
2022/11/13 10:58:22;;;;;;;8.38;4.88;;;12.50;99.90;;;;;;4978434;28;20487;-72
2022/11/13 11:00:48;;;;;;;7.80;4.97;;;12.60;99.90;;;;;;4974500;28;20364;-72
2022/11/13 11:03:17;;;;;;;6.85;4.45;;;12.60;99.90;;;;;;4979844;28;20309;-73
2022/11/13 11:06:04;;;;;;;7.70;4.75;;;12.70;99.90;;;;;;4977824;28;20050;-73
2022/11/13 11:08:32;;;;;;;5.95;4.28;;;12.80;99.90;;;;;;4972020;28;20492;-73
2022/11/13 11:13:51;;;;;;;8.10;4.78;;;13.00;99.90;;;;;;4978593;28;20101;-73
2022/11/13 11:16:22;;;;;;;8.67;4.73;;;13.10;99.90;;;;;;4961916;28;20205;-73
2022/11/13 11:18:52;;;;;;;7.70;4.25;;;13.20;99.90;;;;;;4978492;28;20174;-72
2022/11/13 11:21:22;;;;;;;9.70;4.15;;;13.30;99.90;;;;;;4963570;28;20102;-73
2022/11/13 11:24:17;;;;;;;7.38;4.60;;;13.30;99.90;;;;;;4981776;28;20162;-72
2022/11/13 11:26:56;;;;;;;7.90;4.47;;;13.50;99.90;;;;;;4959368;28;20141;-73
2022/11/13 11:29:38;;;;;;;9.68;4.57;;;13.40;99.90;;;;;;4973996;28;20142;-72
2022/11/13 11:32:13;;;;;;;8.80;4.78;;;13.40;99.90;;;;;;4973299;28;20404;-72
2022/11/13 11:35:07;;;;;;;7.90;4.22;;;13.40;99.90;;;;;;4984415;28;20034;-72
2022/11/13 11:37:48;;;;;;;7.07;4.05;;;13.30;99.90;;;;;;4967009;28;20081;-73
2022/11/13 11:40:29;;;;;;;4.85;3.22;;;13.20;99.90;;;;;;4967406;28;20045;-72
2022/11/13 11:43:27;;;;;;;8.75;4.40;;;13.20;99.90;;;;;;4957995;28;20065;-72
2022/11/13 11:45:53;;;;;;;6.90;4.20;;;13.00;99.90;;;;;;4947601;28;20452;-75
2022/11/13 11:48:27;;;;;;;7.23;4.70;;;13.00;99.90;;;;;;4984778;28;20068;-74
2022/11/13 11:51:23;;;;;;;8.82;4.82;;;13.00;99.90;;;;;;4984550;28;20570;-75
2022/11/13 11:54:20;;;;;;;7.18;4.93;;;13.00;99.90;;;;;;4986593;28;20438;-75
2022/11/13 11:56:51;;;;;;;9.65;5.22;;;13.00;99.90;;;;;;4964486;28;20065;-75
2022/11/13 11:59:53;;;;;;;8.63;5.20;;;13.10;99.90;;;;;;4966362;28;20050;-74
2022/11/13 12:02:29;;;;;;;7.57;4.65;;;13.20;99.90;;;;;;4965314;28;20046;-75
2022/11/13 12:05:40;;;;;;;9.45;4.97;;;13.30;99.90;;;;;;4960568;28;20065;-74
2022/11/13 12:08:14;;;;;;;8.23;4.47;;;13.40;99.90;;;;;;4960845;28;20111;-74
2022/11/13 12:11:01;;;;;;;7.53;4.72;;;13.50;99.90;;;;;;4945046;28;20042;-75
2022/11/13 12:13:31;;;;;;;7.18;4.78;;;13.60;99.90;;;;;;4956204;28;20349;-75
2022/11/13 12:16:00;;;;;;;8.48;4.63;;;13.80;99.90;;;;;;4977082;28;20054;-73
2022/11/13 12:19:23;;;;;;;7.32;4.82;;;13.90;99.90;;;;;;4966817;28;20397;-73
2022/11/13 12:22:16;;;;;;;7.00;4.25;;;14.10;99.90;;;;;;4907201;29;20032;-76
2022/11/13 12:25:00;;;;;;;5.93;3.92;;;14.20;99.90;;;;;;4965514;28;20590;-74
2022/11/13 12:27:42;;;;;;;6.13;3.88;;;14.30;99.90;;;;;;4949578;28;20046;-78
2022/11/13 12:30:20;;;;;;;9.02;4.55;;;14.40;99.90;;;;;;4982243;28;20026;-76
2022/11/13 12:33:07;;;;;;;7.25;4.60;;;14.40;99.90;;;;;;4968460;28;20488;-76
2022/11/13 12:35:33;;;;;;;7.70;4.35;;;14.60;99.90;;;;;;4982139;28;20035;-78
2022/11/13 12:38:44;;;;;;;6.30;3.85;;;14.60;99.90;;;;;;4984200;28;20507;-74
2022/11/13 12:41:37;;;;;;;6.95;3.97;;;14.70;99.90;;;;;;4983539;28;20038;-81
2022/11/13 12:44:09;;;;;;;6.22;4.07;;;14.70;99.90;;;;;;4983204;28;20114;-80
2022/11/13 12:46:38;;;;;;;6.85;4.13;;;14.80;99.90;;;;;;4959759;28;20039;-78
2022/11/13 12:49:22;;;;;;;6.22;4.45;;;14.80;99.90;;;;;;4957313;28;20049;-79
2022/11/13 12:52:03;;;;;;;6.63;4.22;;;14.80;99.90;;;;;;4978899;28;20035;-74
2022/11/13 12:54:36;;;;;;;6.80;4.15;;;14.80;99.90;;;;;;4960570;28;20050;-81
2022/11/13 12:57:05;;;;;;;7.68;4.35;;;14.80;99.90;;;;;;4966558;28;20038;-74
2022/11/13 12:59:38;;;;;;;9.13;4.38;;;14.70;99.90;;;;;;4966055;28;20034;-74
2022/11/13 13:02:06;;;;;;;6.88;4.50;;;14.70;99.90;;;;;;4963074;28;20050;-74
2022/11/13 13:04:44;;;;;;;6.00;3.78;;;14.60;99.90;;;;;;4982499;28;20100;-74